createdAt,value
2017-12-02T00:00:42.412Z,5.68
2017-12-02T00:01:42.146Z,5.67
2017-12-02T00:02:42.392Z,5.64
2017-12-02T00:03:42.127Z,5.65
2017-12-02T00:04:42.365Z,5.78
2017-12-02T00:05:42.096Z,5.72
2017-12-02T00:06:42.343Z,5.74
2017-12-02T00:07:42.073Z,5.72
2017-12-02T00:08:42.062Z,5.75
2017-12-02T00:09:42.299Z,5.75
2017-12-02T00:10:42.290Z,5.65
2017-12-02T00:11:42.272Z,5.71
2017-12-02T00:12:42.276Z,5.72
2017-12-02T00:13:42.243Z,5.79
2017-12-02T00:14:42.233Z,5.72
2017-12-02T00:15:41.974Z,5.78
2017-12-02T00:16:42.204Z,5.79
2017-12-02T00:17:42.206Z,5.75
2017-12-02T00:18:42.196Z,5.72
2017-12-02T00:19:42.174Z,5.71
2017-12-02T00:20:42.146Z,5.75
2017-12-02T00:21:42.141Z,5.78
2017-12-02T00:22:42.137Z,5.64
2017-12-02T00:23:42.129Z,5.76
2017-12-02T00:24:42.111Z,5.74
2017-12-02T00:25:42.091Z,5.72
2017-12-02T00:26:42.080Z,5.76
2017-12-02T00:27:42.065Z,5.72
2017-12-02T00:28:42.116Z,5.76
2017-12-02T00:29:42.034Z,5.72
2017-12-02T00:30:42.028Z,5.78
2017-12-02T00:31:42.023Z,5.81
2017-12-02T00:32:42.033Z,5.65
2017-12-02T00:33:41.988Z,5.76
2017-12-02T00:34:41.976Z,5.61
2017-12-02T00:35:41.962Z,5.71
2017-12-02T00:36:41.959Z,5.78
2017-12-02T00:37:41.928Z,5.71
2017-12-02T00:38:41.922Z,5.68
2017-12-02T00:39:41.911Z,5.78
2017-12-02T00:40:41.634Z,5.72
2017-12-02T00:41:41.883Z,5.68
2017-12-02T00:42:41.869Z,5.75
2017-12-02T00:43:41.856Z,5.65
2017-12-02T00:44:41.852Z,5.71
2017-12-02T00:45:41.841Z,5.72
2017-12-02T00:46:41.831Z,5.75
2017-12-02T00:47:41.818Z,5.78
2017-12-02T00:48:41.792Z,5.74
2017-12-02T00:49:41.778Z,5.74
2017-12-02T00:50:41.771Z,5.72
2017-12-02T00:51:41.751Z,5.78
2017-12-02T00:52:41.741Z,5.68
2017-12-02T00:53:41.739Z,5.71
2017-12-02T00:54:41.719Z,5.76
2017-12-02T00:55:41.718Z,5.75
2017-12-02T00:56:41.441Z,5.76
2017-12-02T00:57:41.673Z,5.76
2017-12-02T00:58:41.653Z,5.68
2017-12-02T00:59:41.400Z,5.68
2017-12-02T01:00:41.633Z,5.74
2017-12-02T01:01:41.624Z,5.76
2017-12-02T01:02:41.621Z,5.71
2017-12-02T01:03:41.606Z,5.71
2017-12-02T01:04:41.590Z,5.72
2017-12-02T01:05:41.569Z,5.68
2017-12-02T01:06:41.570Z,5.75
2017-12-02T01:07:41.553Z,5.64
2017-12-02T01:08:41.539Z,5.72
2017-12-02T01:09:41.528Z,5.67
2017-12-02T01:10:41.499Z,5.63
2017-12-02T01:11:41.497Z,5.71
2017-12-02T01:12:41.491Z,5.72
2017-12-02T01:13:41.481Z,5.57
2017-12-02T01:14:41.202Z,5.6
2017-12-02T01:15:41.445Z,5.56
2017-12-02T01:16:41.432Z,5.57
2017-12-02T01:17:41.423Z,5.54
2017-12-02T01:18:41.401Z,5.53
2017-12-02T01:19:41.392Z,5.56
2017-12-02T01:20:41.381Z,5.51
2017-12-02T01:21:41.364Z,5.63
2017-12-02T01:22:41.100Z,5.67
2017-12-02T01:23:41.333Z,5.56
2017-12-02T01:24:41.324Z,5.71
2017-12-02T01:25:41.311Z,5.67
2017-12-02T01:26:41.305Z,5.61
2017-12-02T01:27:41.292Z,5.74
2017-12-02T01:28:41.270Z,5.74
2017-12-02T01:29:41.258Z,5.76
2017-12-02T01:30:41.279Z,5.74
2017-12-02T01:31:41.233Z,5.74
2017-12-02T01:32:41.217Z,5.75
2017-12-02T01:33:41.206Z,5.81
2017-12-02T01:34:41.200Z,5.78
2017-12-02T01:35:41.192Z,5.79
2017-12-02T01:36:41.169Z,5.9
2017-12-02T01:37:41.161Z,5.76
2017-12-02T01:38:41.141Z,5.82
2017-12-02T01:39:40.868Z,5.89
2017-12-02T01:40:41.118Z,5.86
2017-12-02T01:41:41.112Z,5.9
2017-12-02T01:42:41.082Z,5.79
2017-12-02T01:43:41.068Z,5.89
2017-12-02T01:44:40.805Z,5.9
2017-12-02T01:45:41.049Z,5.85
2017-12-02T01:46:41.044Z,5.89
2017-12-02T01:47:41.025Z,5.9
2017-12-02T01:48:41.021Z,5.83
2017-12-02T01:49:41.009Z,5.89
2017-12-02T01:50:40.982Z,5.85
2017-12-02T01:51:40.974Z,5.93
2017-12-02T01:52:40.969Z,5.91
2017-12-02T01:53:40.692Z,5.91
2017-12-02T01:54:40.956Z,5.96
2017-12-02T01:55:40.928Z,5.86
2017-12-02T01:56:40.920Z,5.89
2017-12-02T01:57:40.894Z,5.91
2017-12-02T01:58:40.890Z,5.85
2017-12-02T01:59:40.612Z,5.82
2017-12-02T02:00:40.854Z,5.9
2017-12-02T02:01:40.846Z,5.85
2017-12-02T02:02:40.830Z,5.86
2017-12-02T02:03:40.826Z,5.86
2017-12-02T02:04:40.822Z,5.85
2017-12-02T02:05:40.934Z,5.85
2017-12-02T02:06:40.794Z,5.85
2017-12-02T02:07:40.778Z,5.9
2017-12-02T02:08:40.763Z,5.89
2017-12-02T02:09:40.497Z,5.86
2017-12-02T02:10:40.731Z,5.85
2017-12-02T02:11:40.724Z,5.74
2017-12-02T02:12:40.710Z,5.82
2017-12-02T02:13:40.702Z,5.83
2017-12-02T02:14:40.687Z,5.81
2017-12-02T02:15:40.675Z,5.82
2017-12-02T02:16:40.665Z,5.75
2017-12-02T02:17:40.650Z,5.75
2017-12-02T02:18:40.631Z,5.6
2017-12-02T02:19:40.607Z,5.65
2017-12-02T02:20:40.600Z,5.56
2017-12-02T02:21:40.610Z,5.56
2017-12-02T02:22:40.579Z,5.61
2017-12-02T02:23:40.557Z,5.56
2017-12-02T02:24:40.556Z,5.57
2017-12-02T02:25:40.276Z,5.54
2017-12-02T02:26:40.533Z,5.67
2017-12-02T02:27:40.531Z,5.64
2017-12-02T02:28:40.522Z,5.57
2017-12-02T02:29:40.497Z,5.68
2017-12-02T02:30:40.477Z,5.56
2017-12-02T02:31:40.466Z,5.56
2017-12-02T02:32:40.452Z,5.61
2017-12-02T02:33:40.428Z,5.6
2017-12-02T02:34:40.446Z,5.57
2017-12-02T02:35:40.423Z,5.61
2017-12-02T02:36:40.407Z,5.6
2017-12-02T02:37:40.389Z,5.57
2017-12-02T02:38:40.380Z,5.58
2017-12-02T02:39:40.104Z,5.58
2017-12-02T02:40:40.356Z,5.58
2017-12-02T02:41:40.347Z,5.57
2017-12-02T02:42:40.309Z,5.58
2017-12-02T02:43:40.300Z,5.56
2017-12-02T02:44:40.308Z,5.58
2017-12-02T02:45:40.279Z,5.53
2017-12-02T02:46:40.263Z,5.54
2017-12-02T02:47:40.263Z,5.58
2017-12-02T02:48:40.237Z,5.61
2017-12-02T02:49:39.989Z,5.58
2017-12-02T02:50:40.223Z,5.58
2017-12-02T02:51:40.215Z,5.57
2017-12-02T02:52:40.192Z,5.6
2017-12-02T02:53:40.179Z,5.64
2017-12-02T02:54:40.185Z,5.58
2017-12-02T02:55:39.898Z,5.57
2017-12-02T02:56:40.138Z,5.64
2017-12-02T02:57:40.135Z,5.53
2017-12-02T02:58:40.127Z,5.54
2017-12-02T02:59:40.106Z,5.6
2017-12-02T03:00:40.089Z,5.49
2017-12-02T03:01:40.070Z,5.58
2017-12-02T03:02:40.064Z,5.71
2017-12-02T03:03:40.049Z,5.56
2017-12-02T03:04:40.042Z,5.56
2017-12-02T03:05:40.022Z,5.54
2017-12-02T03:06:40.005Z,5.6
2017-12-02T03:07:39.995Z,5.6
2017-12-02T03:08:39.980Z,5.64
2017-12-02T03:09:39.983Z,5.67
2017-12-02T03:10:39.960Z,5.58
2017-12-02T03:11:39.944Z,5.64
2017-12-02T03:12:39.667Z,5.61
2017-12-02T03:13:39.906Z,5.71
2017-12-02T03:14:39.909Z,5.53
2017-12-02T03:15:39.889Z,5.58
2017-12-02T03:16:39.880Z,5.58
2017-12-02T03:17:39.859Z,5.58
2017-12-02T03:18:39.843Z,5.57
2017-12-02T03:19:39.854Z,5.6
2017-12-02T03:20:39.822Z,5.45
2017-12-02T03:21:39.815Z,5.46
2017-12-02T03:22:39.795Z,5.54
2017-12-02T03:23:39.786Z,5.4
2017-12-02T03:24:39.770Z,5.53
2017-12-02T03:25:39.504Z,5.54
2017-12-02T03:26:39.742Z,5.58
2017-12-02T03:27:39.731Z,5.53
2017-12-02T03:28:39.477Z,5.56
2017-12-02T03:29:39.715Z,5.45
2017-12-02T03:30:39.700Z,5.53
2017-12-02T03:31:39.694Z,5.46
2017-12-02T03:32:39.667Z,5.49
2017-12-02T03:33:39.405Z,5.54
2017-12-02T03:34:39.655Z,5.45
2017-12-02T03:35:39.637Z,5.45
2017-12-02T03:36:39.614Z,5.54
2017-12-02T03:37:39.599Z,5.48
2017-12-02T03:38:39.576Z,5.49
2017-12-02T03:39:39.570Z,5.48
2017-12-02T03:40:39.563Z,5.49
2017-12-02T03:41:39.558Z,5.45
2017-12-02T03:42:39.537Z,5.43
2017-12-02T03:43:39.532Z,5.54
2017-12-02T03:44:39.523Z,5.56
2017-12-02T03:45:39.493Z,5.43
2017-12-02T03:46:39.491Z,5.46
2017-12-02T03:47:39.467Z,5.42
2017-12-02T03:48:39.210Z,5.36
2017-12-02T03:49:39.193Z,5.38
2017-12-02T03:50:39.448Z,5.46
2017-12-02T03:51:39.420Z,5.43
2017-12-02T03:52:39.415Z,5.42
2017-12-02T03:53:39.391Z,5.43
2017-12-02T03:54:39.386Z,5.51
2017-12-02T03:55:39.367Z,5.42
2017-12-02T03:56:39.345Z,5.53
2017-12-02T03:57:39.336Z,5.46
2017-12-02T03:58:39.327Z,5.43
2017-12-02T03:59:39.320Z,5.46
2017-12-02T04:00:39.295Z,5.46
2017-12-02T04:01:39.294Z,5.42
2017-12-02T04:02:39.275Z,5.53
2017-12-02T04:03:39.273Z,5.54
2017-12-02T04:04:39.252Z,5.54
2017-12-02T04:05:38.982Z,5.54
2017-12-02T04:06:38.961Z,5.45
2017-12-02T04:07:39.200Z,5.56
2017-12-02T04:08:38.942Z,5.56
2017-12-02T04:09:39.186Z,5.46
2017-12-02T04:10:38.916Z,5.46
2017-12-02T04:11:39.166Z,5.56
2017-12-02T04:12:39.161Z,5.46
2017-12-02T04:13:38.885Z,5.58
2017-12-02T04:14:39.116Z,5.53
2017-12-02T04:15:39.104Z,5.58
2017-12-02T04:16:39.103Z,5.63
2017-12-02T04:17:39.077Z,5.58
2017-12-02T04:18:39.064Z,5.64
2017-12-02T04:19:39.048Z,5.63
2017-12-02T04:20:39.045Z,5.6
2017-12-02T04:21:39.022Z,5.58
2017-12-02T04:22:39.010Z,5.54
2017-12-02T04:23:38.998Z,5.51
2017-12-02T04:24:38.993Z,5.61
2017-12-02T04:25:39.064Z,5.61
2017-12-02T04:26:38.956Z,5.54
2017-12-02T04:27:39.021Z,5.54
2017-12-02T04:28:38.941Z,5.58
2017-12-02T04:29:38.920Z,5.53
2017-12-02T04:30:38.915Z,5.53
2017-12-02T04:31:38.902Z,5.67
2017-12-02T04:32:38.886Z,5.72
2017-12-02T04:33:38.878Z,5.74
2017-12-02T04:34:38.857Z,5.75
2017-12-02T04:35:38.584Z,5.71
2017-12-02T04:36:38.830Z,5.63
2017-12-02T04:37:38.603Z,5.79
2017-12-02T04:38:38.812Z,5.81
2017-12-02T04:39:38.791Z,5.75
2017-12-02T04:40:38.772Z,5.78
2017-12-02T04:41:38.768Z,5.71
2017-12-02T04:42:38.757Z,5.75
2017-12-02T04:43:38.482Z,5.81
2017-12-02T04:44:38.730Z,5.79
2017-12-02T04:45:38.459Z,5.83
2017-12-02T04:46:38.708Z,5.86
2017-12-02T04:47:38.432Z,5.82
2017-12-02T04:48:38.675Z,5.79
2017-12-02T04:49:38.658Z,5.76
2017-12-02T04:50:38.656Z,5.75
2017-12-02T04:51:38.643Z,5.82
2017-12-02T04:52:38.631Z,5.81
2017-12-02T04:53:39.035Z,5.86
2017-12-02T04:54:38.595Z,5.76
2017-12-02T04:55:38.591Z,5.78
2017-12-02T04:56:38.574Z,5.81
2017-12-02T04:57:38.558Z,5.82
2017-12-02T04:58:38.554Z,5.76
2017-12-02T04:59:38.536Z,5.79
2017-12-02T05:00:38.515Z,5.78
2017-12-02T05:01:38.508Z,5.81
2017-12-02T05:02:38.504Z,5.76
2017-12-02T05:03:38.493Z,5.76
2017-12-02T05:04:38.463Z,5.72
2017-12-02T05:05:38.461Z,5.64
2017-12-02T05:06:38.459Z,5.72
2017-12-02T05:07:38.442Z,5.72
2017-12-02T05:08:38.417Z,5.68
2017-12-02T05:09:38.405Z,5.76
2017-12-02T05:10:38.387Z,5.75
2017-12-02T05:11:38.388Z,5.74
2017-12-02T05:12:38.373Z,5.78
2017-12-02T05:13:38.346Z,5.89
2017-12-02T05:14:38.339Z,5.78
2017-12-02T05:15:38.079Z,5.75
2017-12-02T05:16:38.302Z,5.86
2017-12-02T05:17:38.307Z,5.75
2017-12-02T05:18:38.287Z,5.78
2017-12-02T05:19:38.272Z,5.85
2017-12-02T05:20:38.265Z,5.81
2017-12-02T05:21:38.256Z,5.85
2017-12-02T05:22:38.243Z,5.82
2017-12-02T05:23:38.222Z,5.82
2017-12-02T05:24:38.215Z,5.82
2017-12-02T05:25:38.189Z,5.89
2017-12-02T05:26:38.194Z,5.9
2017-12-02T05:27:38.172Z,5.9
2017-12-02T05:28:38.158Z,5.86
2017-12-02T05:29:38.153Z,5.86
2017-12-02T05:30:38.150Z,5.85
2017-12-02T05:31:38.113Z,5.86
2017-12-02T05:32:38.107Z,6.04
2017-12-02T05:33:38.084Z,5.83
2017-12-02T05:34:37.822Z,5.96
2017-12-02T05:35:37.814Z,5.96
2017-12-02T05:36:38.063Z,5.96
2017-12-02T05:37:38.043Z,5.97
2017-12-02T05:38:37.772Z,6.03
2017-12-02T05:39:38.018Z,5.99
2017-12-02T05:40:38.014Z,5.99
2017-12-02T05:41:37.991Z,5.99
2017-12-02T05:42:37.970Z,6.08
2017-12-02T05:43:37.962Z,6.04
2017-12-02T05:44:37.962Z,5.99
2017-12-02T05:45:37.678Z,5.97
2017-12-02T05:46:37.924Z,6
2017-12-02T05:47:37.929Z,6.01
2017-12-02T05:48:37.898Z,5.91
2017-12-02T05:49:37.882Z,5.96
2017-12-02T05:50:37.873Z,5.96
2017-12-02T05:51:37.875Z,5.86
2017-12-02T05:52:37.596Z,5.93
2017-12-02T05:53:37.850Z,5.91
2017-12-02T05:54:37.843Z,5.94
2017-12-02T05:55:37.564Z,5.93
2017-12-02T05:56:37.813Z,5.85
2017-12-02T05:57:37.539Z,5.86
2017-12-02T05:58:37.770Z,5.91
2017-12-02T05:59:37.765Z,5.91
2017-12-02T06:00:37.752Z,5.96
2017-12-02T06:01:37.736Z,5.9
2017-12-02T06:02:37.738Z,5.89
2017-12-02T06:03:37.711Z,5.9
2017-12-02T06:04:37.708Z,5.91
2017-12-02T06:05:37.688Z,5.82
2017-12-02T06:06:37.678Z,5.91
2017-12-02T06:07:37.662Z,5.86
2017-12-02T06:08:37.651Z,5.85
2017-12-02T06:09:37.635Z,5.89
2017-12-02T06:10:37.361Z,5.9
2017-12-02T06:11:37.600Z,5.85
2017-12-02T06:12:37.594Z,5.9
2017-12-02T06:13:37.321Z,5.85
2017-12-02T06:14:37.313Z,5.85
2017-12-02T06:15:37.559Z,5.81
2017-12-02T06:16:37.607Z,5.83
2017-12-02T06:17:37.538Z,5.79
2017-12-02T06:18:37.513Z,5.83
2017-12-02T06:19:37.504Z,5.9
2017-12-02T06:20:37.508Z,5.86
2017-12-02T06:21:37.479Z,5.79
2017-12-02T06:22:37.468Z,5.85
2017-12-02T06:23:37.461Z,5.81
2017-12-02T06:24:37.449Z,5.82
2017-12-02T06:25:37.430Z,5.74
2017-12-02T06:26:37.417Z,5.78
2017-12-02T06:27:37.401Z,5.74
2017-12-02T06:28:37.133Z,5.78
2017-12-02T06:29:37.369Z,5.75
2017-12-02T06:30:37.102Z,5.83
2017-12-02T06:31:37.360Z,5.75
2017-12-02T06:32:37.337Z,5.86
2017-12-02T06:33:37.314Z,5.76
2017-12-02T06:34:37.323Z,5.81
2017-12-02T06:35:37.304Z,5.79
2017-12-02T06:36:37.286Z,5.75
2017-12-02T06:37:37.292Z,5.75
2017-12-02T06:38:37.262Z,5.85
2017-12-02T06:39:37.236Z,5.75
2017-12-02T06:40:37.235Z,5.75
2017-12-02T06:41:37.230Z,5.82
2017-12-02T06:42:37.217Z,5.82
2017-12-02T06:43:37.206Z,5.91
2017-12-02T06:44:37.189Z,5.78
2017-12-02T06:45:37.184Z,5.81
2017-12-02T06:46:37.156Z,5.78
2017-12-02T06:47:37.158Z,5.86
2017-12-02T06:48:37.137Z,5.96
2017-12-02T06:49:37.120Z,5.9
2017-12-02T06:50:37.166Z,5.91
2017-12-02T06:51:37.402Z,5.93
2017-12-02T06:52:37.090Z,5.94
2017-12-02T06:53:37.092Z,5.91
2017-12-02T06:54:37.108Z,5.94
2017-12-02T06:55:37.051Z,5.97
2017-12-02T06:56:37.043Z,5.94
2017-12-02T06:57:37.017Z,5.97
2017-12-02T06:58:37.008Z,5.96
2017-12-02T06:59:37.003Z,5.96
2017-12-02T07:00:36.980Z,5.93
2017-12-02T07:01:36.721Z,6.01
2017-12-02T07:02:36.965Z,5.96
2017-12-02T07:03:36.953Z,5.9
2017-12-02T07:04:36.933Z,5.93
2017-12-02T07:05:36.919Z,5.91
2017-12-02T07:06:36.913Z,5.91
2017-12-02T07:07:36.894Z,5.99
2017-12-02T07:08:36.890Z,5.99
2017-12-02T07:09:36.871Z,6.03
2017-12-02T07:10:36.851Z,6.04
2017-12-02T07:11:36.591Z,5.99
2017-12-02T07:12:36.828Z,6.06
2017-12-02T07:13:36.832Z,6.11
2017-12-02T07:14:36.292Z,5.99
2017-12-02T07:15:36.532Z,6.08
2017-12-02T07:16:36.517Z,6.09
2017-12-02T07:17:36.502Z,6.14
2017-12-02T07:18:36.490Z,6.12
2017-12-02T07:19:36.734Z,6.06
2017-12-02T07:20:36.735Z,6.03
2017-12-02T07:21:36.721Z,6.06
2017-12-02T07:22:36.443Z,6.04
2017-12-02T07:23:36.423Z,6.01
2017-12-02T07:24:36.682Z,6.03
2017-12-02T07:25:36.663Z,6.06
2017-12-02T07:26:36.659Z,6.14
2017-12-02T07:27:36.641Z,6.17
2017-12-02T07:28:36.632Z,6.17
2017-12-02T07:29:36.601Z,6.22
2017-12-02T07:30:36.610Z,6.19
2017-12-02T07:31:36.598Z,6.3
2017-12-02T07:32:36.581Z,6.31
2017-12-02T07:33:36.574Z,6.34
2017-12-02T07:34:36.560Z,6.31
2017-12-02T07:35:36.545Z,6.37
2017-12-02T07:36:36.528Z,6.4
2017-12-02T07:37:36.526Z,6.43
2017-12-02T07:38:36.496Z,6.41
2017-12-02T07:39:36.488Z,6.48
2017-12-02T07:40:36.480Z,6.48
2017-12-02T07:41:36.461Z,6.52
2017-12-02T07:42:36.454Z,6.51
2017-12-02T07:43:36.444Z,6.52
2017-12-02T07:44:36.486Z,6.56
2017-12-02T07:45:36.423Z,6.59
2017-12-02T07:46:36.410Z,6.69
2017-12-02T07:47:36.399Z,6.66
2017-12-02T07:48:36.394Z,6.73
2017-12-02T07:49:36.374Z,6.62
2017-12-02T07:50:36.365Z,6.8
2017-12-02T07:51:36.095Z,6.81
2017-12-02T07:52:36.329Z,6.88
2017-12-02T07:53:36.070Z,6.87
2017-12-02T07:54:36.305Z,6.94
2017-12-02T07:55:36.292Z,6.98
2017-12-02T07:56:36.283Z,6.99
2017-12-02T07:57:36.270Z,6.98
2017-12-02T07:58:36.243Z,6.98
2017-12-02T07:59:36.248Z,7.09
2017-12-02T08:00:36.240Z,7.03
2017-12-02T08:01:35.959Z,7.2
2017-12-02T08:02:35.952Z,7.15
2017-12-02T08:03:36.201Z,7.15
2017-12-02T08:04:36.184Z,7.15
2017-12-02T08:05:36.171Z,7.15
2017-12-02T08:06:36.168Z,7.15
2017-12-02T08:07:36.154Z,7.27
2017-12-02T08:08:36.134Z,7.24
2017-12-02T08:09:36.120Z,7.3
2017-12-02T08:10:36.112Z,7.32
2017-12-02T08:11:36.111Z,7.3
2017-12-02T08:12:36.081Z,7.27
2017-12-02T08:13:36.088Z,7.32
2017-12-02T08:14:36.063Z,7.31
2017-12-02T08:15:36.044Z,7.31
2017-12-02T08:16:36.039Z,7.27
2017-12-02T08:17:36.022Z,7.28
2017-12-02T08:18:36.086Z,7.3
2017-12-02T08:19:36.010Z,7.31
2017-12-02T08:20:35.734Z,7.35
2017-12-02T08:21:35.976Z,7.43
2017-12-02T08:22:35.967Z,7.57
2017-12-02T08:23:35.956Z,7.48
2017-12-02T08:24:35.960Z,7.5
2017-12-02T08:25:35.949Z,7.6
2017-12-02T08:26:35.939Z,7.58
2017-12-02T08:27:35.924Z,7.64
2017-12-02T08:28:35.907Z,7.63
2017-12-02T08:29:35.898Z,7.55
2017-12-02T08:30:35.885Z,7.71
2017-12-02T08:31:35.627Z,7.61
2017-12-02T08:32:35.855Z,7.69
2017-12-02T08:33:35.860Z,7.72
2017-12-02T08:34:35.856Z,7.82
2017-12-02T08:35:35.827Z,7.8
2017-12-02T08:36:35.575Z,7.86
2017-12-02T08:37:35.799Z,7.86
2017-12-02T08:38:35.527Z,7.98
2017-12-02T08:39:35.530Z,7.97
2017-12-02T08:40:35.813Z,8.04
2017-12-02T08:41:35.759Z,8.01
2017-12-02T08:42:35.746Z,8.02
2017-12-02T08:43:35.735Z,8.15
2017-12-02T08:44:35.724Z,8.04
2017-12-02T08:45:35.711Z,8.04
2017-12-02T08:46:35.706Z,8.15
2017-12-02T08:47:35.697Z,8.02
2017-12-02T08:48:35.682Z,8.15
2017-12-02T08:49:35.671Z,8.05
2017-12-02T08:50:35.659Z,8.05
2017-12-02T08:51:35.702Z,8.16
2017-12-02T08:52:35.637Z,8.15
2017-12-02T08:53:35.617Z,8.26
2017-12-02T08:54:35.612Z,8.22
2017-12-02T08:55:35.619Z,8.36
2017-12-02T08:56:35.594Z,8.26
2017-12-02T08:57:35.587Z,8.38
2017-12-02T08:58:35.568Z,8.33
2017-12-02T08:59:35.568Z,8.41
2017-12-02T09:00:35.546Z,8.52
2017-12-02T09:01:35.527Z,8.55
2017-12-02T09:02:35.526Z,8.53
2017-12-02T09:03:35.522Z,8.52
2017-12-02T09:04:35.635Z,8.56
2017-12-02T09:05:35.503Z,8.56
2017-12-02T09:06:35.485Z,8.66
2017-12-02T09:07:35.517Z,8.66
2017-12-02T09:08:35.471Z,8.76
2017-12-02T09:09:35.470Z,8.68
2017-12-02T09:10:35.460Z,8.76
2017-12-02T09:11:35.431Z,8.8
2017-12-02T09:12:35.422Z,8.68
2017-12-02T09:13:35.405Z,8.68
2017-12-02T09:14:35.416Z,8.71
2017-12-02T09:15:35.392Z,8.81
2017-12-02T09:16:35.121Z,8.76
2017-12-02T09:17:35.361Z,8.77
2017-12-02T09:18:35.352Z,8.87
2017-12-02T09:19:35.358Z,8.94
2017-12-02T09:20:35.080Z,8.94
2017-12-02T09:21:35.066Z,8.92
2017-12-02T09:22:35.329Z,8.86
2017-12-02T09:23:35.317Z,8.92
2017-12-02T09:24:35.306Z,8.81
2017-12-02T09:25:35.037Z,8.8
2017-12-02T09:26:35.284Z,8.77
2017-12-02T09:27:35.276Z,8.76
2017-12-02T09:28:35.277Z,8.86
2017-12-02T09:29:35.251Z,8.83
2017-12-02T09:30:35.235Z,8.8
2017-12-02T09:31:35.220Z,8.83
2017-12-02T09:32:35.206Z,8.89
2017-12-02T09:33:35.238Z,8.91
2017-12-02T09:34:35.203Z,8.83
2017-12-02T09:35:35.187Z,8.87
2017-12-02T09:36:35.175Z,8.87
2017-12-02T09:37:35.174Z,8.83
2017-12-02T09:38:35.152Z,8.86
2017-12-02T09:39:35.143Z,8.98
2017-12-02T09:40:35.138Z,8.84
2017-12-02T09:41:35.117Z,8.84
2017-12-02T09:42:35.110Z,8.77
2017-12-02T09:43:35.099Z,8.73
2017-12-02T09:44:35.094Z,8.79
2017-12-02T09:45:35.095Z,8.74
2017-12-02T09:46:35.084Z,8.7
2017-12-02T09:47:35.058Z,8.79
2017-12-02T09:48:35.045Z,8.79
2017-12-02T09:49:35.057Z,8.76
2017-12-02T09:50:35.031Z,8.7
2017-12-02T09:51:35.012Z,8.77
2017-12-02T09:52:35.014Z,8.83
2017-12-02T09:53:34.991Z,8.87
2017-12-02T09:54:35.003Z,8.94
2017-12-02T09:55:35.012Z,8.92
2017-12-02T09:56:34.966Z,8.95
2017-12-02T09:57:35.013Z,9.01
2017-12-02T09:58:34.691Z,9.02
2017-12-02T09:59:34.941Z,9.08
2017-12-02T10:00:34.928Z,9.1
2017-12-02T10:01:34.924Z,9.05
2017-12-02T10:02:34.913Z,9.04
2017-12-02T10:03:34.899Z,9.08
2017-12-02T10:04:34.898Z,9.04
2017-12-02T10:05:34.883Z,9.08
2017-12-02T10:06:34.871Z,9.11
2017-12-02T10:07:34.858Z,9.21
2017-12-02T10:08:34.598Z,9.15
2017-12-02T10:09:34.850Z,9.13
2017-12-02T10:10:34.833Z,9.11
2017-12-02T10:11:34.805Z,9.13
2017-12-02T10:12:34.557Z,9.08
2017-12-02T10:13:34.543Z,9.2
2017-12-02T10:14:34.798Z,9.11
2017-12-02T10:15:34.788Z,9.21
2017-12-02T10:16:34.774Z,9.26
2017-12-02T10:17:34.759Z,9.13
2017-12-02T10:18:34.747Z,9.18
2017-12-02T10:19:34.743Z,9.21
2017-12-02T10:20:34.477Z,9.15
2017-12-02T10:21:34.742Z,9.23
2017-12-02T10:22:34.703Z,9.26
2017-12-02T10:23:34.691Z,9.15
2017-12-02T10:24:34.693Z,9.13
2017-12-02T10:25:34.678Z,9.1
2017-12-02T10:26:34.706Z,9.05
2017-12-02T10:27:34.666Z,9.15
2017-12-02T10:28:34.661Z,9.15
2017-12-02T10:29:34.639Z,9.13
2017-12-02T10:30:34.632Z,9.01
2017-12-02T10:31:34.627Z,9.05
2017-12-02T10:32:34.347Z,8.92
2017-12-02T10:33:34.610Z,8.95
2017-12-02T10:34:34.598Z,8.81
2017-12-02T10:35:34.576Z,8.83
2017-12-02T10:36:34.572Z,8.73
2017-12-02T10:37:34.551Z,8.66
2017-12-02T10:38:34.538Z,8.66
2017-12-02T10:39:34.543Z,8.59
2017-12-02T10:40:34.530Z,8.48
2017-12-02T10:41:34.515Z,8.43
2017-12-02T10:42:34.506Z,8.48
2017-12-02T10:43:34.497Z,8.43
2017-12-02T10:44:34.495Z,8.37
2017-12-02T10:45:34.772Z,8.4
2017-12-02T10:46:34.467Z,8.34
2017-12-02T10:47:34.443Z,8.23
2017-12-02T10:48:34.450Z,8.12
2017-12-02T10:49:34.446Z,8.04
2017-12-02T10:50:34.681Z,7.98
2017-12-02T10:51:34.411Z,7.95
2017-12-02T10:52:34.401Z,7.86
2017-12-02T10:53:34.385Z,7.89
2017-12-02T10:54:34.392Z,7.69
2017-12-02T10:55:34.372Z,7.68
2017-12-02T10:56:34.348Z,7.68
2017-12-02T10:57:34.351Z,7.57
2017-12-02T10:58:34.363Z,7.6
2017-12-02T10:59:34.328Z,7.52
2017-12-02T11:00:34.321Z,7.49
2017-12-02T11:01:34.318Z,7.55
2017-12-02T11:02:34.303Z,7.58
2017-12-02T11:03:34.297Z,7.52
2017-12-02T11:04:34.021Z,7.6
2017-12-02T11:05:34.257Z,7.6
2017-12-02T11:06:34.264Z,7.58
2017-12-02T11:07:33.986Z,7.5
2017-12-02T11:08:34.228Z,7.61
2017-12-02T11:09:34.226Z,7.58
2017-12-02T11:10:34.221Z,7.6
2017-12-02T11:11:34.203Z,7.58
2017-12-02T11:12:34.194Z,7.69
2017-12-02T11:13:34.173Z,7.79
2017-12-02T11:14:33.904Z,7.8
2017-12-02T11:15:34.146Z,7.86
2017-12-02T11:16:34.147Z,7.92
2017-12-02T11:17:34.117Z,8.01
2017-12-02T11:18:34.158Z,8.02
2017-12-02T11:19:34.133Z,8.02
2017-12-02T11:20:34.119Z,8.08
2017-12-02T11:21:34.125Z,8.12
2017-12-02T11:22:34.129Z,8.22
2017-12-02T11:23:34.083Z,8.16
2017-12-02T11:24:34.180Z,8.08
2017-12-02T11:25:34.168Z,8.25
2017-12-02T11:26:34.033Z,8.15
2017-12-02T11:27:34.060Z,8.19
2017-12-02T11:28:34.080Z,8.25
2017-12-02T11:29:34.053Z,8.22
2017-12-02T11:30:33.999Z,8.23
2017-12-02T11:31:33.981Z,8.26
2017-12-02T11:32:33.712Z,8.15
2017-12-02T11:33:34.011Z,8.1
2017-12-02T11:34:33.964Z,8.23
2017-12-02T11:35:33.960Z,8.25
2017-12-02T11:36:33.684Z,8.28
2017-12-02T11:37:33.967Z,8.25
2017-12-02T11:38:33.936Z,8.12
2017-12-02T11:39:33.907Z,8.18
2017-12-02T11:40:33.909Z,8.19
2017-12-02T11:41:33.905Z,8.16
2017-12-02T11:42:33.903Z,8.15
2017-12-02T11:43:33.868Z,8.22
2017-12-02T11:44:33.956Z,8.33
2017-12-02T11:45:33.835Z,8.36
2017-12-02T11:46:33.850Z,8.37
2017-12-02T11:47:33.809Z,8.38
2017-12-02T11:48:33.799Z,8.4
2017-12-02T11:49:33.272Z,8.36
2017-12-02T11:50:33.806Z,8.41
2017-12-02T11:51:33.805Z,8.37
2017-12-02T11:52:33.771Z,8.34
2017-12-02T11:53:33.807Z,8.5
2017-12-02T11:54:33.814Z,8.47
2017-12-02T11:55:33.734Z,8.37
2017-12-02T11:56:33.728Z,8.37
2017-12-02T11:57:33.728Z,8.36
2017-12-02T11:58:33.683Z,8.36
2017-12-02T11:59:33.672Z,8.43
2017-12-02T12:00:33.683Z,8.5
2017-12-02T12:01:33.401Z,8.45
2017-12-02T12:02:33.650Z,8.44
2017-12-02T12:03:33.371Z,8.52
2017-12-02T12:04:33.376Z,8.48
2017-12-02T12:05:33.613Z,8.5
2017-12-02T12:06:33.666Z,8.4
2017-12-02T12:07:33.335Z,8.45
2017-12-02T12:08:33.574Z,8.34
2017-12-02T12:09:33.566Z,8.37
2017-12-02T12:10:33.570Z,8.36
2017-12-02T12:11:33.305Z,8.37
2017-12-02T12:12:33.557Z,8.34
2017-12-02T12:13:33.536Z,8.36
2017-12-02T12:14:33.507Z,8.37
2017-12-02T12:15:33.520Z,8.34
2017-12-02T12:16:33.511Z,8.36
2017-12-02T12:17:33.477Z,8.38
2017-12-02T12:18:33.486Z,8.33
2017-12-02T12:19:33.480Z,8.36
2017-12-02T12:20:33.453Z,8.3
2017-12-02T12:21:33.456Z,8.29
2017-12-02T12:22:33.443Z,8.3
2017-12-02T12:23:33.169Z,8.25
2017-12-02T12:24:33.410Z,8.18
2017-12-02T12:25:33.154Z,8.23
2017-12-02T12:26:33.410Z,8.25
2017-12-02T12:27:33.422Z,8.2
2017-12-02T12:28:33.371Z,8.25
2017-12-02T12:29:33.351Z,8.3
2017-12-02T12:30:33.352Z,8.33
2017-12-02T12:31:33.349Z,8.2
2017-12-02T12:32:33.314Z,8.26
2017-12-02T12:33:33.327Z,8.36
2017-12-02T12:34:33.352Z,8.33
2017-12-02T12:35:33.304Z,8.22
2017-12-02T12:36:33.279Z,8.18
2017-12-02T12:37:33.269Z,8.19
2017-12-02T12:38:33.274Z,8.25
2017-12-02T12:39:33.247Z,8.19
2017-12-02T12:40:33.265Z,8.3
2017-12-02T12:41:33.233Z,8.28
2017-12-02T12:42:33.222Z,8.23
2017-12-02T12:43:33.216Z,8.19
2017-12-02T12:44:32.939Z,8.18
2017-12-02T12:45:32.918Z,8.23
2017-12-02T12:46:33.183Z,8.12
2017-12-02T12:47:32.909Z,8.15
2017-12-02T12:48:33.142Z,8.19
2017-12-02T12:49:33.147Z,8.12
2017-12-02T12:50:33.140Z,8.22
2017-12-02T12:51:33.119Z,8.19
2017-12-02T12:52:32.858Z,8.23
2017-12-02T12:53:33.109Z,8.25
2017-12-02T12:54:32.836Z,8.23
2017-12-02T12:55:32.835Z,8.26
2017-12-02T12:56:33.074Z,8.19
2017-12-02T12:57:33.075Z,8.22
2017-12-02T12:58:33.292Z,8.2
2017-12-02T12:59:32.810Z,8.16
2017-12-02T13:00:32.767Z,8.12
2017-12-02T13:01:33.016Z,8.11
2017-12-02T13:02:33.016Z,8.18
2017-12-02T13:03:32.738Z,8.1
2017-12-02T13:04:32.971Z,8.11
2017-12-02T13:05:32.974Z,8.04
2017-12-02T13:06:32.959Z,8.02
2017-12-02T13:07:32.966Z,8.01
2017-12-02T13:08:32.950Z,8.04
2017-12-02T13:09:32.950Z,8.01
2017-12-02T13:10:32.921Z,8
2017-12-02T13:11:32.647Z,8.02
2017-12-02T13:12:32.902Z,7.98
2017-12-02T13:13:32.937Z,7.97
2017-12-02T13:14:32.871Z,7.98
2017-12-02T13:15:32.606Z,7.82
2017-12-02T13:16:32.860Z,7.92
2017-12-02T13:17:32.830Z,7.83
2017-12-02T13:18:32.836Z,7.89
2017-12-02T13:19:32.837Z,7.89
2017-12-02T13:20:32.808Z,7.79